sensor_id;sensor_type;location;lat;lon;timestamp;temperature;humidity
12156;DHT22;6141;49.092;8.516;2023-07-09T00:01:57;23.30;40.20
12156;DHT22;6141;49.092;8.516;2023-07-09T00:04:26;23.30;39.20
12156;DHT22;6141;49.092;8.516;2023-07-09T00:06:55;23.50;39.20
12156;DHT22;6141;49.092;8.516;2023-07-09T00:09:24;23.40;39.10
12156;DHT22;6141;49.092;8.516;2023-07-09T00:11:52;23.50;38.40
12156;DHT22;6141;49.092;8.516;2023-07-09T00:14:22;23.20;39.80
12156;DHT22;6141;49.092;8.516;2023-07-09T00:16:50;23.10;40.00
12156;DHT22;6141;49.092;8.516;2023-07-09T00:19:21;22.80;41.70
12156;DHT22;6141;49.092;8.516;2023-07-09T00:21:52;22.40;42.60
12156;DHT22;6141;49.092;8.516;2023-07-09T00:24:21;22.40;43.60
12156;DHT22;6141;49.092;8.516;2023-07-09T00:26:50;22.20;44.40
12156;DHT22;6141;49.092;8.516;2023-07-09T00:29:18;22.20;44.90
12156;DHT22;6141;49.092;8.516;2023-07-09T00:31:47;22.40;44.50
12156;DHT22;6141;49.092;8.516;2023-07-09T00:34:17;22.80;42.00
12156;DHT22;6141;49.092;8.516;2023-07-09T00:36:50;23.30;39.10
12156;DHT22;6141;49.092;8.516;2023-07-09T00:39:20;23.80;37.60
12156;DHT22;6141;49.092;8.516;2023-07-09T00:41:50;23.60;39.00
12156;DHT22;6141;49.092;8.516;2023-07-09T00:44:25;23.10;41.70
12156;DHT22;6141;49.092;8.516;2023-07-09T00:47:21;22.50;44.00
12156;DHT22;6141;49.092;8.516;2023-07-09T00:50:06;22.30;44.50
12156;DHT22;6141;49.092;8.516;2023-07-09T00:52:43;22.40;42.80
12156;DHT22;6141;49.092;8.516;2023-07-09T00:55:16;22.80;41.90
12156;DHT22;6141;49.092;8.516;2023-07-09T00:57:47;23.00;41.50
12156;DHT22;6141;49.092;8.516;2023-07-09T01:00:27;22.80;41.70
12156;DHT22;6141;49.092;8.516;2023-07-09T01:02:56;22.80;41.60
12156;DHT22;6141;49.092;8.516;2023-07-09T01:05:26;22.80;41.90
12156;DHT22;6141;49.092;8.516;2023-07-09T01:07:56;22.80;41.30
12156;DHT22;6141;49.092;8.516;2023-07-09T01:10:25;23.00;41.00
12156;DHT22;6141;49.092;8.516;2023-07-09T01:12:53;22.80;41.30
12156;DHT22;6141;49.092;8.516;2023-07-09T01:15:25;22.90;41.00
12156;DHT22;6141;49.092;8.516;2023-07-09T01:17:53;22.80;40.80
12156;DHT22;6141;49.092;8.516;2023-07-09T01:20:22;22.70;41.40
12156;DHT22;6141;49.092;8.516;2023-07-09T01:22:54;22.30;42.70
12156;DHT22;6141;49.092;8.516;2023-07-09T01:25:27;21.90;44.90
12156;DHT22;6141;49.092;8.516;2023-07-09T01:27:57;21.70;45.60
12156;DHT22;6141;49.092;8.516;2023-07-09T01:30:29;21.80;44.70
12156;DHT22;6141;49.092;8.516;2023-07-09T01:32:59;22.00;44.20
12156;DHT22;6141;49.092;8.516;2023-07-09T01:35:30;22.50;42.10
12156;DHT22;6141;49.092;8.516;2023-07-09T01:38:02;22.80;40.70
12156;DHT22;6141;49.092;8.516;2023-07-09T01:40:35;22.70;41.60
12156;DHT22;6141;49.092;8.516;2023-07-09T01:43:06;22.70;40.50
12156;DHT22;6141;49.092;8.516;2023-07-09T01:45:36;22.60;40.80
12156;DHT22;6141;49.092;8.516;2023-07-09T01:48:05;22.60;41.30
12156;DHT22;6141;49.092;8.516;2023-07-09T01:50:33;22.30;42.30
12156;DHT22;6141;49.092;8.516;2023-07-09T01:53:03;21.90;43.70
12156;DHT22;6141;49.092;8.516;2023-07-09T01:55:31;21.70;44.80
12156;DHT22;6141;49.092;8.516;2023-07-09T01:58:00;21.80;44.80
12156;DHT22;6141;49.092;8.516;2023-07-09T02:00:32;21.80;44.20
12156;DHT22;6141;49.092;8.516;2023-07-09T02:03:03;21.70;44.60
12156;DHT22;6141;49.092;8.516;2023-07-09T02:05:32;21.60;45.70
12156;DHT22;6141;49.092;8.516;2023-07-09T02:08:00;21.50;46.40
12156;DHT22;6141;49.092;8.516;2023-07-09T02:10:29;21.60;46.00
12156;DHT22;6141;49.092;8.516;2023-07-09T02:12:59;21.70;45.20
12156;DHT22;6141;49.092;8.516;2023-07-09T02:15:27;21.80;44.10
12156;DHT22;6141;49.092;8.516;2023-07-09T02:17:57;22.10;43.30
12156;DHT22;6141;49.092;8.516;2023-07-09T02:20:26;22.30;42.10
12156;DHT22;6141;49.092;8.516;2023-07-09T02:22:54;22.00;43.30
12156;DHT22;6141;49.092;8.516;2023-07-09T02:25:22;21.90;43.20
12156;DHT22;6141;49.092;8.516;2023-07-09T02:27:52;21.80;44.00
12156;DHT22;6141;49.092;8.516;2023-07-09T02:30:20;21.30;46.00
12156;DHT22;6141;49.092;8.516;2023-07-09T02:32:49;21.20;46.80
12156;DHT22;6141;49.092;8.516;2023-07-09T02:35:21;21.10;47.40
12156;DHT22;6141;49.092;8.516;2023-07-09T02:37:49;21.30;46.80
12156;DHT22;6141;49.092;8.516;2023-07-09T02:40:17;21.50;44.90
12156;DHT22;6141;49.092;8.516;2023-07-09T02:42:45;21.80;44.00
12156;DHT22;6141;49.092;8.516;2023-07-09T02:45:18;22.20;42.80
12156;DHT22;6141;49.092;8.516;2023-07-09T02:47:46;22.00;44.20
12156;DHT22;6141;49.092;8.516;2023-07-09T02:50:15;21.80;44.00
12156;DHT22;6141;49.092;8.516;2023-07-09T02:52:43;21.80;44.00
12156;DHT22;6141;49.092;8.516;2023-07-09T02:55:11;21.90;44.00
12156;DHT22;6141;49.092;8.516;2023-07-09T02:57:39;21.90;44.10
12156;DHT22;6141;49.092;8.516;2023-07-09T03:00:08;22.00;43.00
12156;DHT22;6141;49.092;8.516;2023-07-09T03:02:38;22.00;43.90
12156;DHT22;6141;49.092;8.516;2023-07-09T03:05:07;21.70;44.30
12156;DHT22;6141;49.092;8.516;2023-07-09T03:07:37;21.30;45.90
12156;DHT22;6141;49.092;8.516;2023-07-09T03:10:06;20.80;47.30
12156;DHT22;6141;49.092;8.516;2023-07-09T03:12:34;20.80;47.70
12156;DHT22;6141;49.092;8.516;2023-07-09T03:15:02;21.00;47.30
12156;DHT22;6141;49.092;8.516;2023-07-09T03:17:31;21.50;44.60
12156;DHT22;6141;49.092;8.516;2023-07-09T03:20:00;22.00;42.30
12156;DHT22;6141;49.092;8.516;2023-07-09T03:22:29;22.40;40.90
12156;DHT22;6141;49.092;8.516;2023-07-09T03:24:57;22.40;41.30
12156;DHT22;6141;49.092;8.516;2023-07-09T03:27:25;22.10;42.00
12156;DHT22;6141;49.092;8.516;2023-07-09T03:29:53;21.60;42.30
12156;DHT22;6141;49.092;8.516;2023-07-09T03:32:21;21.70;43.40
12156;DHT22;6141;49.092;8.516;2023-07-09T03:34:49;22.00;41.70
12156;DHT22;6141;49.092;8.516;2023-07-09T03:37:21;22.20;41.80
12156;DHT22;6141;49.092;8.516;2023-07-09T03:39:49;22.10;41.60
12156;DHT22;6141;49.092;8.516;2023-07-09T03:42:17;21.50;43.70
12156;DHT22;6141;49.092;8.516;2023-07-09T03:44:45;21.00;45.80
12156;DHT22;6141;49.092;8.516;2023-07-09T03:47:13;20.70;48.00
12156;DHT22;6141;49.092;8.516;2023-07-09T03:49:41;20.60;49.30
12156;DHT22;6141;49.092;8.516;2023-07-09T03:52:09;20.90;47.50
12156;DHT22;6141;49.092;8.516;2023-07-09T03:54:39;21.00;47.70
12156;DHT22;6141;49.092;8.516;2023-07-09T03:57:07;21.00;47.50
12156;DHT22;6141;49.092;8.516;2023-07-09T03:59:35;21.10;47.00
12156;DHT22;6141;49.092;8.516;2023-07-09T04:02:04;21.20;45.90
12156;DHT22;6141;49.092;8.516;2023-07-09T04:04:33;21.40;44.60
12156;DHT22;6141;49.092;8.516;2023-07-09T04:07:01;21.50;44.70
12156;DHT22;6141;49.092;8.516;2023-07-09T04:09:29;21.30;45.40
12156;DHT22;6141;49.092;8.516;2023-07-09T04:11:59;21.00;46.60
12156;DHT22;6141;49.092;8.516;2023-07-09T04:14:28;21.40;44.80
12156;DHT22;6141;49.092;8.516;2023-07-09T04:16:56;21.50;45.20
12156;DHT22;6141;49.092;8.516;2023-07-09T04:19:25;21.40;45.40
12156;DHT22;6141;49.092;8.516;2023-07-09T04:21:53;21.30;46.20
12156;DHT22;6141;49.092;8.516;2023-07-09T04:24:21;21.30;45.70
12156;DHT22;6141;49.092;8.516;2023-07-09T04:26:49;21.70;43.90
12156;DHT22;6141;49.092;8.516;2023-07-09T04:29:24;22.10;44.30
12156;DHT22;6141;49.092;8.516;2023-07-09T04:31:52;21.50;46.40
12156;DHT22;6141;49.092;8.516;2023-07-09T04:34:20;20.90;49.40
12156;DHT22;6141;49.092;8.516;2023-07-09T04:36:48;20.70;52.20
12156;DHT22;6141;49.092;8.516;2023-07-09T04:39:16;20.70;53.70
12156;DHT22;6141;49.092;8.516;2023-07-09T04:41:44;20.50;55.30
12156;DHT22;6141;49.092;8.516;2023-07-09T04:44:12;20.50;55.30
12156;DHT22;6141;49.092;8.516;2023-07-09T04:46:42;20.90;52.50
12156;DHT22;6141;49.092;8.516;2023-07-09T04:49:10;21.10;52.40
12156;DHT22;6141;49.092;8.516;2023-07-09T04:51:39;21.00;53.60
12156;DHT22;6141;49.092;8.516;2023-07-09T04:54:07;20.90;54.50
12156;DHT22;6141;49.092;8.516;2023-07-09T04:56:35;21.10;53.80
12156;DHT22;6141;49.092;8.516;2023-07-09T04:59:04;21.40;50.00
12156;DHT22;6141;49.092;8.516;2023-07-09T05:01:32;22.00;48.10
12156;DHT22;6141;49.092;8.516;2023-07-09T05:04:01;22.50;46.20
12156;DHT22;6141;49.092;8.516;2023-07-09T05:06:30;22.70;45.90
12156;DHT22;6141;49.092;8.516;2023-07-09T05:08:58;22.80;46.30
12156;DHT22;6141;49.092;8.516;2023-07-09T05:11:26;22.90;45.80
12156;DHT22;6141;49.092;8.516;2023-07-09T05:13:54;23.00;45.20
12156;DHT22;6141;49.092;8.516;2023-07-09T05:16:22;23.20;43.70
12156;DHT22;6141;49.092;8.516;2023-07-09T05:18:50;23.20;44.10
12156;DHT22;6141;49.092;8.516;2023-07-09T05:21:20;23.20;43.60
12156;DHT22;6141;49.092;8.516;2023-07-09T05:23:48;23.30;43.30
12156;DHT22;6141;49.092;8.516;2023-07-09T05:26:16;23.30;43.10
12156;DHT22;6141;49.092;8.516;2023-07-09T05:28:44;23.50;42.70
12156;DHT22;6141;49.092;8.516;2023-07-09T05:31:12;23.60;40.30
12156;DHT22;6141;49.092;8.516;2023-07-09T05:33:40;23.80;40.50
12156;DHT22;6141;49.092;8.516;2023-07-09T05:36:09;23.70;40.60
12156;DHT22;6141;49.092;8.516;2023-07-09T05:38:41;23.70;40.60
12156;DHT22;6141;49.092;8.516;2023-07-09T05:41:10;23.70;40.40
12156;DHT22;6141;49.092;8.516;2023-07-09T05:43:38;23.50;40.40
12156;DHT22;6141;49.092;8.516;2023-07-09T05:46:06;23.50;41.20
12156;DHT22;6141;49.092;8.516;2023-07-09T05:48:35;23.40;40.70
12156;DHT22;6141;49.092;8.516;2023-07-09T05:51:03;23.70;39.70
12156;DHT22;6141;49.092;8.516;2023-07-09T05:53:31;24.00;39.60
12156;DHT22;6141;49.092;8.516;2023-07-09T05:56:01;24.20;38.60
12156;DHT22;6141;49.092;8.516;2023-07-09T05:58:30;24.40;36.50
12156;DHT22;6141;49.092;8.516;2023-07-09T06:00:58;24.60;35.50
12156;DHT22;6141;49.092;8.516;2023-07-09T06:03:27;24.70;36.50
12156;DHT22;6141;49.092;8.516;2023-07-09T06:05:56;24.80;34.70
12156;DHT22;6141;49.092;8.516;2023-07-09T06:08:25;24.70;36.80
12156;DHT22;6141;49.092;8.516;2023-07-09T06:10:54;24.50;35.50
12156;DHT22;6141;49.092;8.516;2023-07-09T06:13:25;24.70;35.50
12156;DHT22;6141;49.092;8.516;2023-07-09T06:15:54;24.80;34.90
12156;DHT22;6141;49.092;8.516;2023-07-09T06:18:24;24.60;37.50
12156;DHT22;6141;49.092;8.516;2023-07-09T06:20:57;24.50;37.30
12156;DHT22;6141;49.092;8.516;2023-07-09T06:23:27;24.70;35.30
12156;DHT22;6141;49.092;8.516;2023-07-09T06:25:55;25.00;34.40
12156;DHT22;6141;49.092;8.516;2023-07-09T06:28:26;25.10;34.90
12156;DHT22;6141;49.092;8.516;2023-07-09T06:30:56;25.20;33.10
12156;DHT22;6141;49.092;8.516;2023-07-09T06:33:25;25.20;33.60
12156;DHT22;6141;49.092;8.516;2023-07-09T06:35:55;25.20;34.30
12156;DHT22;6141;49.092;8.516;2023-07-09T06:38:24;25.20;34.40
12156;DHT22;6141;49.092;8.516;2023-07-09T06:40:53;25.50;32.60
12156;DHT22;6141;49.092;8.516;2023-07-09T06:43:21;25.70;31.70
12156;DHT22;6141;49.092;8.516;2023-07-09T06:45:52;25.70;32.20
12156;DHT22;6141;49.092;8.516;2023-07-09T06:48:20;25.60;32.60
12156;DHT22;6141;49.092;8.516;2023-07-09T06:50:49;25.70;34.70
12156;DHT22;6141;49.092;8.516;2023-07-09T06:53:17;25.90;32.10
12156;DHT22;6141;49.092;8.516;2023-07-09T06:55:45;26.00;32.30
12156;DHT22;6141;49.092;8.516;2023-07-09T06:58:15;26.20;31.10
12156;DHT22;6141;49.092;8.516;2023-07-09T07:00:43;26.60;30.00
12156;DHT22;6141;49.092;8.516;2023-07-09T07:03:13;26.80;30.00
12156;DHT22;6141;49.092;8.516;2023-07-09T07:05:43;27.10;29.30
12156;DHT22;6141;49.092;8.516;2023-07-09T07:08:13;27.10;29.40
12156;DHT22;6141;49.092;8.516;2023-07-09T07:10:42;27.30;29.80
12156;DHT22;6141;49.092;8.516;2023-07-09T07:13:10;27.50;30.70
12156;DHT22;6141;49.092;8.516;2023-07-09T07:15:39;27.80;27.90
12156;DHT22;6141;49.092;8.516;2023-07-09T07:18:08;28.10;27.80
12156;DHT22;6141;49.092;8.516;2023-07-09T07:20:37;28.20;26.90
12156;DHT22;6141;49.092;8.516;2023-07-09T07:23:05;28.30;25.30
12156;DHT22;6141;49.092;8.516;2023-07-09T07:25:33;28.40;26.10
12156;DHT22;6141;49.092;8.516;2023-07-09T07:28:01;28.60;25.10
12156;DHT22;6141;49.092;8.516;2023-07-09T07:30:29;28.80;25.00
12156;DHT22;6141;49.092;8.516;2023-07-09T07:32:58;28.80;24.20
12156;DHT22;6141;49.092;8.516;2023-07-09T07:35:26;29.00;24.00
12156;DHT22;6141;49.092;8.516;2023-07-09T07:37:55;29.20;23.10
12156;DHT22;6141;49.092;8.516;2023-07-09T07:40:23;29.40;23.40
12156;DHT22;6141;49.092;8.516;2023-07-09T07:42:51;29.50;21.50
12156;DHT22;6141;49.092;8.516;2023-07-09T07:45:40;29.40;20.10
12156;DHT22;6141;49.092;8.516;2023-07-09T07:48:28;29.40;21.20
12156;DHT22;6141;49.092;8.516;2023-07-09T07:51:17;29.60;21.20
12156;DHT22;6141;49.092;8.516;2023-07-09T07:54:06;29.60;22.50
12156;DHT22;6141;49.092;8.516;2023-07-09T07:56:57;29.80;20.50
12156;DHT22;6141;49.092;8.516;2023-07-09T07:59:45;30.00;20.40
12156;DHT22;6141;49.092;8.516;2023-07-09T08:02:34;30.10;20.50
12156;DHT22;6141;49.092;8.516;2023-07-09T08:05:22;30.10;22.00
12156;DHT22;6141;49.092;8.516;2023-07-09T08:08:11;30.30;19.90
12156;DHT22;6141;49.092;8.516;2023-07-09T08:11:02;30.50;20.90
12156;DHT22;6141;49.092;8.516;2023-07-09T08:13:52;30.60;21.40
12156;DHT22;6141;49.092;8.516;2023-07-09T08:16:41;30.70;21.30
12156;DHT22;6141;49.092;8.516;2023-07-09T08:19:30;30.30;22.50
12156;DHT22;6141;49.092;8.516;2023-07-09T08:22:19;30.50;21.10
12156;DHT22;6141;49.092;8.516;2023-07-09T08:25:08;30.70;20.80
12156;DHT22;6141;49.092;8.516;2023-07-09T08:27:58;30.90;23.00
12156;DHT22;6141;49.092;8.516;2023-07-09T08:30:47;30.80;20.90
12156;DHT22;6141;49.092;8.516;2023-07-09T08:33:35;30.70;20.60
12156;DHT22;6141;49.092;8.516;2023-07-09T08:36:24;30.80;20.20
12156;DHT22;6141;49.092;8.516;2023-07-09T08:39:16;31.00;20.20
12156;DHT22;6141;49.092;8.516;2023-07-09T08:42:09;31.20;19.00
12156;DHT22;6141;49.092;8.516;2023-07-09T08:45:11;31.50;19.60
12156;DHT22;6141;49.092;8.516;2023-07-09T08:48:05;31.50;18.70
12156;DHT22;6141;49.092;8.516;2023-07-09T08:50:57;31.60;19.20
12156;DHT22;6141;49.092;8.516;2023-07-09T08:53:50;31.80;21.00
12156;DHT22;6141;49.092;8.516;2023-07-09T08:56:39;31.90;18.50
12156;DHT22;6141;49.092;8.516;2023-07-09T08:59:29;32.00;17.70
12156;DHT22;6141;49.092;8.516;2023-07-09T09:02:29;32.10;17.60
12156;DHT22;6141;49.092;8.516;2023-07-09T09:05:20;32.10;15.40
12156;DHT22;6141;49.092;8.516;2023-07-09T09:08:26;32.20;17.80
12156;DHT22;6141;49.092;8.516;2023-07-09T09:11:21;32.30;16.70
12156;DHT22;6141;49.092;8.516;2023-07-09T09:14:24;32.40;15.30
12156;DHT22;6141;49.092;8.516;2023-07-09T09:17:17;32.60;16.40
12156;DHT22;6141;49.092;8.516;2023-07-09T09:20:10;32.70;16.50
12156;DHT22;6141;49.092;8.516;2023-07-09T09:23:12;32.80;15.30
12156;DHT22;6141;49.092;8.516;2023-07-09T09:26:02;33.00;16.50
12156;DHT22;6141;49.092;8.516;2023-07-09T09:29:00;32.90;14.40
12156;DHT22;6141;49.092;8.516;2023-07-09T09:31:54;33.00;15.70
12156;DHT22;6141;49.092;8.516;2023-07-09T09:34:43;33.10;15.00
12156;DHT22;6141;49.092;8.516;2023-07-09T09:37:33;33.20;14.10
12156;DHT22;6141;49.092;8.516;2023-07-09T09:40:24;33.30;14.40
12156;DHT22;6141;49.092;8.516;2023-07-09T09:43:15;33.40;14.10
12156;DHT22;6141;49.092;8.516;2023-07-09T09:46:06;33.50;14.20
12156;DHT22;6141;49.092;8.516;2023-07-09T09:48:59;33.60;13.80
12156;DHT22;6141;49.092;8.516;2023-07-09T09:51:47;33.50;13.10
12156;DHT22;6141;49.092;8.516;2023-07-09T09:54:40;33.40;13.40
12156;DHT22;6141;49.092;8.516;2023-07-09T09:57:29;33.50;14.00
12156;DHT22;6141;49.092;8.516;2023-07-09T10:00:18;33.70;12.20
12156;DHT22;6141;49.092;8.516;2023-07-09T10:03:07;33.70;13.30
12156;DHT22;6141;49.092;8.516;2023-07-09T10:06:01;34.00;14.00
12156;DHT22;6141;49.092;8.516;2023-07-09T10:08:57;34.20;12.90
12156;DHT22;6141;49.092;8.516;2023-07-09T10:11:55;34.20;13.90
12156;DHT22;6141;49.092;8.516;2023-07-09T10:14:53;34.30;13.10
12156;DHT22;6141;49.092;8.516;2023-07-09T10:17:47;34.40;11.90
12156;DHT22;6141;49.092;8.516;2023-07-09T10:20:41;34.60;12.10
12156;DHT22;6141;49.092;8.516;2023-07-09T10:23:37;34.50;12.00
12156;DHT22;6141;49.092;8.516;2023-07-09T10:26:30;34.60;12.10
12156;DHT22;6141;49.092;8.516;2023-07-09T10:29:43;34.70;13.60
12156;DHT22;6141;49.092;8.516;2023-07-09T10:32:44;34.70;12.10
12156;DHT22;6141;49.092;8.516;2023-07-09T10:35:38;34.70;10.40
12156;DHT22;6141;49.092;8.516;2023-07-09T10:38:40;34.60;10.70
12156;DHT22;6141;49.092;8.516;2023-07-09T10:41:35;34.70;12.30
12156;DHT22;6141;49.092;8.516;2023-07-09T10:44:29;34.70;10.00
12156;DHT22;6141;49.092;8.516;2023-07-09T10:47:27;35.00;10.70
12156;DHT22;6141;49.092;8.516;2023-07-09T10:50:22;35.10;7.90
12156;DHT22;6141;49.092;8.516;2023-07-09T10:53:29;35.30;9.90
12156;DHT22;6141;49.092;8.516;2023-07-09T10:56:23;35.10;9.00
12156;DHT22;6141;49.092;8.516;2023-07-09T10:59:19;35.20;8.30
12156;DHT22;6141;49.092;8.516;2023-07-09T11:02:18;35.20;9.90
12156;DHT22;6141;49.092;8.516;2023-07-09T11:05:09;35.30;8.40
12156;DHT22;6141;49.092;8.516;2023-07-09T11:08:02;35.40;9.40
12156;DHT22;6141;49.092;8.516;2023-07-09T11:10:56;35.50;8.50
12156;DHT22;6141;49.092;8.516;2023-07-09T11:13:50;35.60;7.00
12156;DHT22;6141;49.092;8.516;2023-07-09T11:16:41;35.80;7.60
12156;DHT22;6141;49.092;8.516;2023-07-09T11:19:30;35.80;7.30
12156;DHT22;6141;49.092;8.516;2023-07-09T11:22:23;35.80;7.50
12156;DHT22;6141;49.092;8.516;2023-07-09T11:25:13;36.10;8.00
12156;DHT22;6141;49.092;8.516;2023-07-09T11:28:05;35.80;5.00
12156;DHT22;6141;49.092;8.516;2023-07-09T11:30:54;35.90;6.40
12156;DHT22;6141;49.092;8.516;2023-07-09T11:33:46;35.90;3.70
12156;DHT22;6141;49.092;8.516;2023-07-09T11:36:46;36.00;6.50
12156;DHT22;6141;49.092;8.516;2023-07-09T11:39:45;36.10;6.20
12156;DHT22;6141;49.092;8.516;2023-07-09T11:42:47;36.10;5.70
12156;DHT22;6141;49.092;8.516;2023-07-09T11:45:36;36.20;4.90
12156;DHT22;6141;49.092;8.516;2023-07-09T11:48:26;36.30;3.90
12156;DHT22;6141;49.092;8.516;2023-07-09T11:51:17;36.30;6.10
12156;DHT22;6141;49.092;8.516;2023-07-09T11:54:07;36.50;4.60
12156;DHT22;6141;49.092;8.516;2023-07-09T11:57:00;36.60;4.40
12156;DHT22;6141;49.092;8.516;2023-07-09T11:59:50;36.50;5.30
12156;DHT22;6141;49.092;8.516;2023-07-09T12:02:38;36.50;2.70
12156;DHT22;6141;49.092;8.516;2023-07-09T12:05:28;36.50;3.10
12156;DHT22;6141;49.092;8.516;2023-07-09T12:08:17;36.50;5.10
12156;DHT22;6141;49.092;8.516;2023-07-09T12:11:06;36.80;5.00
12156;DHT22;6141;49.092;8.516;2023-07-09T12:14:01;36.90;4.30
12156;DHT22;6141;49.092;8.516;2023-07-09T12:16:52;36.80;5.10
12156;DHT22;6141;49.092;8.516;2023-07-09T12:19:40;36.90;2.10
12156;DHT22;6141;49.092;8.516;2023-07-09T12:22:29;37.00;4.10
12156;DHT22;6141;49.092;8.516;2023-07-09T12:25:21;36.90;1.90
12156;DHT22;6141;49.092;8.516;2023-07-09T12:28:14;36.90;5.20
12156;DHT22;6141;49.092;8.516;2023-07-09T12:31:04;36.80;2.40
12156;DHT22;6141;49.092;8.516;2023-07-09T12:33:54;37.00;5.00
12156;DHT22;6141;49.092;8.516;2023-07-09T12:36:46;37.10;3.70
12156;DHT22;6141;49.092;8.516;2023-07-09T12:39:37;37.10;2.00
12156;DHT22;6141;49.092;8.516;2023-07-09T12:42:30;37.30;4.10
12156;DHT22;6141;49.092;8.516;2023-07-09T12:45:20;37.10;3.70
12156;DHT22;6141;49.092;8.516;2023-07-09T12:48:11;37.10;4.20
12156;DHT22;6141;49.092;8.516;2023-07-09T12:51:01;37.10;5.10
12156;DHT22;6141;49.092;8.516;2023-07-09T12:54:00;36.90;2.80
12156;DHT22;6141;49.092;8.516;2023-07-09T12:56:51;36.90;1.90
12156;DHT22;6141;49.092;8.516;2023-07-09T12:59:41;37.10;7.60
12156;DHT22;6141;49.092;8.516;2023-07-09T13:02:29;37.30;3.20
12156;DHT22;6141;49.092;8.516;2023-07-09T13:05:21;37.40;5.60
12156;DHT22;6141;49.092;8.516;2023-07-09T13:08:14;37.60;3.90
12156;DHT22;6141;49.092;8.516;2023-07-09T13:11:03;37.60;3.50
12156;DHT22;6141;49.092;8.516;2023-07-09T13:14:04;37.60;2.10
12156;DHT22;6141;49.092;8.516;2023-07-09T13:17:02;37.30;1.00
12156;DHT22;6141;49.092;8.516;2023-07-09T13:19:51;37.10;1.00
12156;DHT22;6141;49.092;8.516;2023-07-09T13:22:44;37.10;1.10
12156;DHT22;6141;49.092;8.516;2023-07-09T13:25:33;37.30;3.40
12156;DHT22;6141;49.092;8.516;2023-07-09T13:28:34;37.40;1.00
12156;DHT22;6141;49.092;8.516;2023-07-09T13:31:22;37.50;1.00
12156;DHT22;6141;49.092;8.516;2023-07-09T13:34:18;37.40;1.00
12156;DHT22;6141;49.092;8.516;2023-07-09T13:37:09;37.30;1.00
12156;DHT22;6141;49.092;8.516;2023-07-09T13:40:00;37.40;1.60
12156;DHT22;6141;49.092;8.516;2023-07-09T13:42:49;37.30;1.00
12156;DHT22;6141;49.092;8.516;2023-07-09T13:45:19;36.90;1.00
12156;DHT22;6141;49.092;8.516;2023-07-09T13:47:49;36.80;1.00
12156;DHT22;6141;49.092;8.516;2023-07-09T13:50:18;36.70;1.00
12156;DHT22;6141;49.092;8.516;2023-07-09T13:52:46;36.70;1.70
12156;DHT22;6141;49.092;8.516;2023-07-09T13:55:19;36.80;1.80
12156;DHT22;6141;49.092;8.516;2023-07-09T13:57:48;36.70;4.50
12156;DHT22;6141;49.092;8.516;2023-07-09T14:00:17;36.70;4.10
12156;DHT22;6141;49.092;8.516;2023-07-09T14:02:45;37.00;4.30
12156;DHT22;6141;49.092;8.516;2023-07-09T14:05:14;37.00;5.30
12156;DHT22;6141;49.092;8.516;2023-07-09T14:07:42;37.10;5.50
12156;DHT22;6141;49.092;8.516;2023-07-09T14:10:12;37.00;4.20
12156;DHT22;6141;49.092;8.516;2023-07-09T14:12:45;36.80;2.80
12156;DHT22;6141;49.092;8.516;2023-07-09T14:15:16;36.80;1.80
12156;DHT22;6141;49.092;8.516;2023-07-09T14:17:44;36.90;6.60
12156;DHT22;6141;49.092;8.516;2023-07-09T14:20:14;36.90;3.30
12156;DHT22;6141;49.092;8.516;2023-07-09T14:22:44;37.00;3.40
12156;DHT22;6141;49.092;8.516;2023-07-09T14:25:19;36.90;4.70
12156;DHT22;6141;49.092;8.516;2023-07-09T14:27:50;37.00;7.60
12156;DHT22;6141;49.092;8.516;2023-07-09T14:30:21;37.10;4.40
12156;DHT22;6141;49.092;8.516;2023-07-09T14:32:50;36.80;1.00
12156;DHT22;6141;49.092;8.516;2023-07-09T14:35:20;36.80;4.40
12156;DHT22;6141;49.092;8.516;2023-07-09T14:37:50;36.80;8.40
12156;DHT22;6141;49.092;8.516;2023-07-09T14:40:20;37.00;9.10
12156;DHT22;6141;49.092;8.516;2023-07-09T14:42:50;37.00;1.90
12156;DHT22;6141;49.092;8.516;2023-07-09T14:45:21;36.90;1.00
12156;DHT22;6141;49.092;8.516;2023-07-09T14:47:51;37.10;1.00
12156;DHT22;6141;49.092;8.516;2023-07-09T14:50:20;37.10;1.00
12156;DHT22;6141;49.092;8.516;2023-07-09T14:52:49;37.20;1.00
12156;DHT22;6141;49.092;8.516;2023-07-09T14:55:19;37.10;1.00
12156;DHT22;6141;49.092;8.516;2023-07-09T14:57:48;37.40;1.10
12156;DHT22;6141;49.092;8.516;2023-07-09T15:00:20;37.30;1.00
12156;DHT22;6141;49.092;8.516;2023-07-09T15:02:50;37.40;2.20
12156;DHT22;6141;49.092;8.516;2023-07-09T15:05:21;37.50;3.80
12156;DHT22;6141;49.092;8.516;2023-07-09T15:07:50;37.40;1.00
12156;DHT22;6141;49.092;8.516;2023-07-09T15:10:22;37.10;1.00
12156;DHT22;6141;49.092;8.516;2023-07-09T15:12:51;36.50;1.00
12156;DHT22;6141;49.092;8.516;2023-07-09T15:15:27;36.50;1.00
12156;DHT22;6141;49.092;8.516;2023-07-09T15:17:56;36.80;1.00
12156;DHT22;6141;49.092;8.516;2023-07-09T15:20:26;37.30;2.10
12156;DHT22;6141;49.092;8.516;2023-07-09T15:22:57;37.20;5.30
12156;DHT22;6141;49.092;8.516;2023-07-09T15:25:28;37.30;1.00
12156;DHT22;6141;49.092;8.516;2023-07-09T15:27:57;37.40;1.00
12156;DHT22;6141;49.092;8.516;2023-07-09T15:30:28;37.30;3.70
12156;DHT22;6141;49.092;8.516;2023-07-09T15:33:00;37.40;3.80
12156;DHT22;6141;49.092;8.516;2023-07-09T15:35:36;37.20;1.00
12156;DHT22;6141;49.092;8.516;2023-07-09T15:38:16;37.00;1.90
12156;DHT22;6141;49.092;8.516;2023-07-09T15:40:48;37.00;1.90
12156;DHT22;6141;49.092;8.516;2023-07-09T15:43:17;37.10;1.00
12156;DHT22;6141;49.092;8.516;2023-07-09T15:45:49;36.90;1.90
12156;DHT22;6141;49.092;8.516;2023-07-09T15:48:22;36.90;3.00
12156;DHT22;6141;49.092;8.516;2023-07-09T15:50:51;37.00;5.60
12156;DHT22;6141;49.092;8.516;2023-07-09T15:53:20;36.70;7.60
12156;DHT22;6141;49.092;8.516;2023-07-09T15:55:52;36.60;9.90
12156;DHT22;6141;49.092;8.516;2023-07-09T15:58:24;36.60;10.80
12156;DHT22;6141;49.092;8.516;2023-07-09T16:00:54;36.50;11.70
12156;DHT22;6141;49.092;8.516;2023-07-09T16:03:22;36.50;10.70
12156;DHT22;6141;49.092;8.516;2023-07-09T16:05:50;36.50;14.50
12156;DHT22;6141;49.092;8.516;2023-07-09T16:08:18;36.40;13.10
12156;DHT22;6141;49.092;8.516;2023-07-09T16:10:47;36.30;13.10
12156;DHT22;6141;49.092;8.516;2023-07-09T16:13:20;36.30;12.40
12156;DHT22;6141;49.092;8.516;2023-07-09T16:15:48;36.20;13.20
12156;DHT22;6141;49.092;8.516;2023-07-09T16:18:19;36.30;13.00
12156;DHT22;6141;49.092;8.516;2023-07-09T16:20:47;36.20;13.00
12156;DHT22;6141;49.092;8.516;2023-07-09T16:23:17;36.10;11.70
12156;DHT22;6141;49.092;8.516;2023-07-09T16:25:47;36.10;12.00
12156;DHT22;6141;49.092;8.516;2023-07-09T16:28:19;36.00;12.90
12156;DHT22;6141;49.092;8.516;2023-07-09T16:30:48;35.70;7.40
12156;DHT22;6141;49.092;8.516;2023-07-09T16:33:18;35.60;11.40
12156;DHT22;6141;49.092;8.516;2023-07-09T16:35:47;35.60;10.10
12156;DHT22;6141;49.092;8.516;2023-07-09T16:38:16;35.60;6.50
12156;DHT22;6141;49.092;8.516;2023-07-09T16:40:44;35.70;9.70
12156;DHT22;6141;49.092;8.516;2023-07-09T16:43:15;35.70;7.40
12156;DHT22;6141;49.092;8.516;2023-07-09T16:45:44;35.70;8.10
12156;DHT22;6141;49.092;8.516;2023-07-09T16:48:15;35.80;6.30
12156;DHT22;6141;49.092;8.516;2023-07-09T16:50:45;35.50;9.50
12156;DHT22;6141;49.092;8.516;2023-07-09T16:53:14;35.40;10.20